createdAt,value
2023-03-23T16:00:19.149Z,98756.41
2023-03-23T16:02:49.055Z,98752.97
2023-03-23T16:05:18.841Z,98755.38
2023-03-23T16:07:46.986Z,98762.41
2023-03-23T16:10:18.713Z,98760.81
2023-03-23T16:12:47.564Z,98763.84
2023-03-23T16:15:16.931Z,98768.47
2023-03-23T16:17:46.718Z,98759.34
2023-03-23T16:20:17.440Z,98768.97
2023-03-23T16:22:47.698Z,98771.91
2023-03-23T16:25:16.641Z,98767.06
2023-03-23T16:30:19.608Z,98768.25
2023-03-23T16:32:48.262Z,98768.78
2023-03-23T16:35:18.503Z,98769.31
2023-03-23T16:37:49.896Z,98769.75
2023-03-23T16:40:19.625Z,98783.50
2023-03-23T16:42:48.176Z,98778.00
2023-03-23T16:45:17.156Z,98777.25
2023-03-23T16:47:46.660Z,98787.09
2023-03-23T16:50:17.175Z,98786.00
2023-03-23T16:52:48.763Z,98795.78
2023-03-23T16:55:18.579Z,98794.28
2023-03-23T16:57:56.198Z,98794.38
2023-03-23T17:00:29.654Z,98801.50
2023-03-23T17:02:58.409Z,98809.78
2023-03-23T17:05:28.765Z,98812.56
2023-03-23T17:08:00.434Z,98807.16
2023-03-23T17:10:30.007Z,98817.72
2023-03-23T17:12:58.473Z,98820.56
2023-03-23T17:15:26.893Z,98827.56
2023-03-23T17:17:56.098Z,98826.94
2023-03-23T17:20:24.861Z,98835.28
2023-03-23T17:22:53.019Z,98824.13
2023-03-23T17:25:39.721Z,98830.09
2023-03-23T17:28:11.517Z,98835.25
2023-03-23T17:30:42.853Z,98838.13
2023-03-23T17:33:12.300Z,98846.53
2023-03-23T17:35:42.257Z,98858.59
2023-03-23T17:38:11.263Z,98859.19
2023-03-23T17:40:41.298Z,98872.03
2023-03-23T17:43:09.441Z,98873.84
2023-03-23T17:45:41.650Z,98875.91
2023-03-23T17:48:12.361Z,98880.22
2023-03-23T17:50:40.910Z,98883.38
2023-03-23T17:53:09.194Z,98893.38
2023-03-23T17:55:40.574Z,98898.91
2023-03-23T17:58:10.574Z,98896.88
2023-03-23T18:00:40.133Z,98911.47
2023-03-23T18:03:08.669Z,98905.59
2023-03-23T18:05:39.279Z,98907.06
2023-03-23T18:08:08.369Z,98911.91
2023-03-23T18:10:39.505Z,98910.56
2023-03-23T18:13:11.849Z,98917.34
2023-03-23T18:15:41.241Z,98907.38
2023-03-23T18:18:10.458Z,98912.22
2023-03-23T18:20:38.699Z,98908.16
2023-03-23T18:23:07.167Z,98911.88
2023-03-23T18:25:35.615Z,98907.00
2023-03-23T18:28:05.438Z,98911.50
2023-03-23T18:30:36.425Z,98913.13
2023-03-23T18:33:05.659Z,98914.81
2023-03-23T18:35:34.921Z,98919.66
2023-03-23T18:38:05.269Z,98923.22
2023-03-23T18:40:33.842Z,98921.19
2023-03-23T18:43:05.079Z,98924.56
2023-03-23T18:45:37.064Z,98915.38
2023-03-23T18:48:05.679Z,98916.72
2023-03-23T18:50:34.106Z,98913.72
2023-03-23T18:53:02.304Z,98921.25
2023-03-23T18:55:30.645Z,98919.09
2023-03-23T18:58:00.683Z,98914.53
2023-03-23T19:00:32.031Z,98927.00
2023-03-23T19:03:04.330Z,98922.91
2023-03-23T19:05:33.007Z,98925.81
2023-03-23T19:08:02.866Z,98919.13
2023-03-23T19:10:31.750Z,98919.66
2023-03-23T19:12:59.997Z,98916.03
2023-03-23T19:15:28.406Z,98922.41
2023-03-23T19:17:59.740Z,98920.22
2023-03-23T19:21:06.590Z,98923.13
2023-03-23T19:23:21.259Z,98916.13
2023-03-23T19:25:50.140Z,98923.78
2023-03-23T19:30:54.079Z,98927.44
2023-03-23T19:33:23.170Z,98923.66
2023-03-23T19:36:06.222Z,98926.69
2023-03-23T19:38:38.120Z,98924.16
2023-03-23T19:41:06.905Z,98935.91
2023-03-23T19:43:37.596Z,98932.47
2023-03-23T19:46:06.144Z,98933.63
2023-03-23T19:48:34.531Z,98942.22
2023-03-23T19:51:04.975Z,98939.22
2023-03-23T19:53:33.297Z,98938.25
2023-03-23T19:56:03.551Z,98934.78
2023-03-23T19:58:33.007Z,98935.13
2023-03-23T20:01:02.546Z,98941.94
2023-03-23T20:03:31.051Z,98943.19
2023-03-23T20:06:01.367Z,98946.84
2023-03-23T20:08:31.453Z,98947.63
2023-03-23T20:11:04.486Z,98943.34
2023-03-23T20:13:33.366Z,98947.16
2023-03-23T20:16:02.103Z,98957.81
2023-03-23T20:18:31.529Z,98950.69
2023-03-23T20:21:03.987Z,98948.78
2023-03-23T20:23:33.929Z,98951.47
2023-03-23T20:26:04.989Z,98950.69
2023-03-23T20:28:33.743Z,98955.63
2023-03-23T20:31:16.382Z,98961.81
2023-03-23T20:34:00.680Z,98955.47
2023-03-23T20:36:35.098Z,98958.97
2023-03-23T20:39:08.227Z,98962.63
2023-03-23T20:41:37.387Z,98960.41
2023-03-23T20:44:05.985Z,98967.75
2023-03-23T20:46:34.836Z,98963.28
2023-03-23T20:49:03.404Z,98970.13
2023-03-23T20:51:31.823Z,98968.38
2023-03-23T20:54:00.284Z,98977.59
2023-03-23T20:56:29.903Z,98973.94
2023-03-23T20:58:58.046Z,98975.38
2023-03-23T21:01:26.354Z,98977.28
2023-03-23T21:03:57.024Z,98984.75
2023-03-23T21:06:28.755Z,98981.56
2023-03-23T21:08:58.203Z,98976.78
2023-03-23T21:11:28.268Z,98982.81
2023-03-23T21:13:58.131Z,98981.06
2023-03-23T21:16:26.390Z,98982.03
2023-03-23T21:18:54.757Z,98980.28
2023-03-23T21:21:23.246Z,98974.38
2023-03-23T21:23:53.014Z,98981.41
2023-03-23T21:26:24.287Z,98979.78
2023-03-23T21:28:54.135Z,98977.09
2023-03-23T21:31:27.068Z,98981.06
2023-03-23T21:33:55.171Z,98978.69
2023-03-23T21:36:25.185Z,98981.06
2023-03-23T21:38:53.742Z,98982.03
2023-03-23T21:41:21.893Z,98986.31
2023-03-23T21:43:50.475Z,98976.31
2023-03-23T21:46:19.407Z,98982.50
2023-03-23T21:48:51.807Z,98990.28
2023-03-23T21:51:23.212Z,98991.38
2023-03-23T21:53:54.536Z,98984.56
2023-03-23T21:56:23.798Z,98992.34
2023-03-23T21:58:52.274Z,98985.38
2023-03-23T22:01:22.283Z,98982.97
2023-03-23T22:03:52.456Z,98993.00
2023-03-23T22:06:23.587Z,98982.50
2023-03-23T22:08:52.026Z,98978.53
2023-03-23T22:11:23.735Z,98979.94
2023-03-23T22:13:53.361Z,98972.19
2023-03-23T22:16:22.951Z,98973.91
2023-03-23T22:18:55.512Z,98963.09
2023-03-23T22:21:27.289Z,98972.47
2023-03-23T22:23:58.198Z,98967.41
2023-03-23T22:26:28.530Z,98962.16
2023-03-23T22:28:57.548Z,98957.88
2023-03-23T22:31:28.352Z,98968.69
2023-03-23T22:33:58.983Z,98956.59
2023-03-23T22:36:33.411Z,98974.06
2023-03-23T22:39:03.315Z,98960.88
2023-03-23T22:41:34.672Z,98962.78
2023-03-23T22:44:02.956Z,98977.06
2023-03-23T22:46:32.277Z,98970.41
2023-03-23T22:49:02.152Z,98966.41
2023-03-23T22:51:30.566Z,98957.38
2023-03-23T22:53:59.834Z,98977.69
2023-03-23T22:56:28.993Z,98977.03
2023-03-23T22:59:00.198Z,98977.03
2023-03-23T23:01:28.795Z,98990.88
2023-03-23T23:03:57.253Z,98995.47
2023-03-23T23:06:30.443Z,99000.22
2023-03-23T23:08:59.348Z,99001.34
2023-03-23T23:11:28.736Z,99001.06
2023-03-23T23:13:57.183Z,98999.13
2023-03-23T23:16:26.497Z,98999.63
2023-03-23T23:18:55.041Z,99003.09
2023-03-23T23:21:27.298Z,99004.59
2023-03-23T23:23:55.698Z,99016.00
2023-03-23T23:26:24.194Z,99011.91
2023-03-23T23:28:52.862Z,99005.59
2023-03-23T23:31:26.546Z,99010.34
2023-03-23T23:33:56.448Z,99013.03
2023-03-23T23:36:30.315Z,99010.97
2023-03-23T23:39:00.304Z,99009.19
2023-03-23T23:41:30.026Z,99001.88
2023-03-23T23:43:58.331Z,99005.16
2023-03-23T23:46:27.984Z,98995.41
2023-03-23T23:48:56.296Z,98998.06
2023-03-23T23:51:27.455Z,98998.34
2023-03-23T23:54:01.653Z,98996.41
2023-03-23T23:56:30.487Z,98989.06
2023-03-23T23:58:58.796Z,98986.00
